AERODROME FORECAST
Output Produced by Aerodrome Forecast
found at http://aviationweather.gov/adds/metars/
 

Data at: 1728 UTC 20 Sep 2020

TAF for:WIII (Jakarta Intl, --, ID) issued at 1700 UTC 20 Sep 2020
Text:TAF WIII 201700Z 2018/2124 20005KT 6000 SCT020
Forecast period:1800 UTC 20 September 2020 to 0000 UTC 22 September 2020
Forecast type:FROM: standard forecast or significant change
Winds:from the SSW (200 degrees) at 6 MPH (5 knots; 2.6 m/s)
Visibility: 4 sm ( 6 km)
Ceiling:at least 12,000 feet AGL
Clouds: scattered clouds at 2000 feet AGL
Text:BECMG 2006/2008 04010KT 9000
Forecast period:0600 UTC 20 September 2020 to 0000 UTC 22 September 2020
Forecast type:BECOMING: Conditions expected to become as follows by 0800 UTC 20 September 2020
Winds:from the NE (40 degrees) at 12 MPH (10 knots; 5.1 m/s)
Visibility: 6 sm ( 9 km)
Ceiling:at least 12,000 feet AGL
Clouds: scattered clouds at 2000 feet AGL


PELAYANAN